createdAt,value
2017-10-26T00:00:35.248Z,5.50
2017-10-26T00:03:02.696Z,5.20
2017-10-26T00:05:30.080Z,5.87
2017-10-26T00:07:57.511Z,6.37
2017-10-26T00:10:24.896Z,5.50
2017-10-26T00:12:52.316Z,5.00
2017-10-26T00:15:19.704Z,5.10
2017-10-26T00:17:47.164Z,6.40
2017-10-26T00:20:14.571Z,5.83
2017-10-26T00:22:41.968Z,5.27
2017-10-26T00:25:09.404Z,5.47
2017-10-26T00:27:36.804Z,5.47
2017-10-26T00:30:04.244Z,5.33
2017-10-26T00:32:31.630Z,5.80
2017-10-26T00:34:59.351Z,6.60
2017-10-26T00:37:26.740Z,6.60
2017-10-26T00:39:54.160Z,5.37
2017-10-26T00:42:21.553Z,5.20
2017-10-26T00:44:48.971Z,4.97
2017-10-26T00:47:17.276Z,4.77
2017-10-26T00:49:44.726Z,5.13
2017-10-26T00:52:12.125Z,4.27
2017-10-26T00:54:39.547Z,4.53
2017-10-26T00:57:06.985Z,3.97
2017-10-26T00:59:34.388Z,3.90
2017-10-26T01:02:01.800Z,4.57
2017-10-26T01:04:29.223Z,4.07
2017-10-26T01:06:56.652Z,3.70
2017-10-26T01:09:24.062Z,3.93
2017-10-26T01:11:51.513Z,4.17
2017-10-26T01:14:18.912Z,4.00
2017-10-26T01:16:46.341Z,3.93
2017-10-26T01:19:13.767Z,4.47
2017-10-26T01:21:41.220Z,4.30
2017-10-26T01:24:08.596Z,4.10
2017-10-26T01:26:36.036Z,4.30
2017-10-26T01:29:03.465Z,4.30
2017-10-26T01:31:30.853Z,4.40
2017-10-26T01:33:58.289Z,4.30
2017-10-26T01:36:25.675Z,3.97
2017-10-26T01:38:53.112Z,4.20
2017-10-26T01:41:20.518Z,4.30
2017-10-26T01:43:47.936Z,4.40
2017-10-26T01:46:15.343Z,4.40
2017-10-26T01:48:42.768Z,4.60
2017-10-26T01:51:10.163Z,5.27
2017-10-26T01:53:37.586Z,4.60
2017-10-26T01:56:05.003Z,4.60
2017-10-26T01:58:32.448Z,5.33
2017-10-26T02:00:59.870Z,4.97
2017-10-26T02:03:27.273Z,5.70
2017-10-26T02:05:54.713Z,4.80
2017-10-26T02:08:22.133Z,5.60
2017-10-26T02:10:49.553Z,5.40
2017-10-26T02:13:16.955Z,5.70
2017-10-26T02:15:44.398Z,5.37
2017-10-26T02:18:11.808Z,4.87
2017-10-26T02:20:39.251Z,4.90
2017-10-26T02:23:06.633Z,4.10
2017-10-26T02:25:34.068Z,4.70
2017-10-26T02:28:01.453Z,4.30
2017-10-26T02:30:40.743Z,4.27
2017-10-26T02:33:08.139Z,4.67
2017-10-26T02:35:35.553Z,5.50
2017-10-26T02:38:03.042Z,4.93
2017-10-26T02:40:30.431Z,5.13
2017-10-26T02:42:57.839Z,5.27
2017-10-26T02:45:25.246Z,5.80
2017-10-26T02:47:52.709Z,5.97
2017-10-26T02:50:20.123Z,6.90
2017-10-26T02:52:47.568Z,5.63
2017-10-26T02:55:14.952Z,5.90
2017-10-26T02:57:42.376Z,5.80
2017-10-26T03:00:09.807Z,5.40
2017-10-26T03:02:37.211Z,5.30
2017-10-26T03:05:04.629Z,5.80
2017-10-26T03:07:32.032Z,5.97
2017-10-26T03:10:00.661Z,7.00
2017-10-26T03:12:28.053Z,7.10
2017-10-26T03:14:55.479Z,7.10
2017-10-26T03:17:22.901Z,6.50
2017-10-26T03:19:50.319Z,6.37
2017-10-26T03:22:17.741Z,6.30
2017-10-26T03:24:45.168Z,6.60
2017-10-26T03:27:12.573Z,6.90
2017-10-26T03:29:40.006Z,6.50
2017-10-26T03:32:07.409Z,6.90
2017-10-26T03:34:34.816Z,5.90
2017-10-26T03:37:02.229Z,6.90
2017-10-26T03:39:29.631Z,7.77
2017-10-26T03:41:57.076Z,6.50
2017-10-26T03:44:24.471Z,6.00
2017-10-26T03:46:51.922Z,6.70
2017-10-26T03:49:19.313Z,6.47
2017-10-26T03:51:46.735Z,5.80
2017-10-26T03:54:14.135Z,6.20
2017-10-26T03:56:41.613Z,6.07
2017-10-26T03:59:08.998Z,6.73
2017-10-26T04:01:36.403Z,6.07
2017-10-26T04:04:03.845Z,6.97
2017-10-26T04:06:31.264Z,8.27
2017-10-26T04:08:58.706Z,7.70
2017-10-26T04:11:26.133Z,8.10
2017-10-26T04:13:53.570Z,7.50
2017-10-26T04:16:20.955Z,7.90
2017-10-26T04:18:48.432Z,7.20
2017-10-26T04:21:15.833Z,7.87
2017-10-26T04:23:43.261Z,7.93
2017-10-26T04:26:10.704Z,7.00
2017-10-26T04:28:38.090Z,8.03
2017-10-26T04:31:05.533Z,7.40
2017-10-26T04:33:32.973Z,8.00
2017-10-26T04:36:00.394Z,7.97
2017-10-26T04:38:27.795Z,8.13
2017-10-26T04:40:55.212Z,8.70
2017-10-26T04:43:22.610Z,8.53
2017-10-26T04:45:50.043Z,9.03
2017-10-26T04:48:17.448Z,9.40
2017-10-26T04:50:44.879Z,9.90
2017-10-26T04:53:12.319Z,8.30
2017-10-26T04:55:39.759Z,8.13
2017-10-26T04:58:07.195Z,8.37
2017-10-26T05:00:34.598Z,8.97
2017-10-26T05:03:02.027Z,9.93
2017-10-26T05:05:29.446Z,9.77
2017-10-26T05:07:56.876Z,10.70
2017-10-26T05:10:24.275Z,10.17
2017-10-26T05:12:51.711Z,10.40
2017-10-26T05:15:19.145Z,9.40
2017-10-26T05:17:46.601Z,8.80
2017-10-26T05:20:14.033Z,10.30
2017-10-26T05:22:41.470Z,9.93
2017-10-26T05:25:08.903Z,9.90
2017-10-26T05:27:36.341Z,9.90
2017-10-26T05:30:03.761Z,11.20
2017-10-26T05:32:31.155Z,10.53
2017-10-26T05:34:58.589Z,9.97
2017-10-26T05:37:26.020Z,10.80
2017-10-26T05:39:53.457Z,11.10
2017-10-26T05:42:20.882Z,12.53
2017-10-26T05:44:48.317Z,11.70
2017-10-26T05:47:15.740Z,14.10
2017-10-26T05:49:43.161Z,12.00
2017-10-26T05:52:10.995Z,14.20
2017-10-26T05:54:38.450Z,12.27
2017-10-26T05:57:05.889Z,14.87
2017-10-26T05:59:33.287Z,14.60
2017-10-26T06:02:00.719Z,15.60
2017-10-26T06:04:28.124Z,15.10
2017-10-26T06:06:55.530Z,14.37
2017-10-26T06:09:23.043Z,14.60
2017-10-26T06:11:50.482Z,17.00
2017-10-26T06:14:17.955Z,17.40
2017-10-26T06:16:45.363Z,16.90
2017-10-26T06:19:12.829Z,16.90
2017-10-26T06:21:40.227Z,17.70
2017-10-26T06:24:07.695Z,16.67
2017-10-26T06:26:35.105Z,16.53
2017-10-26T06:29:02.536Z,16.87
2017-10-26T06:31:29.955Z,14.73
2017-10-26T06:33:57.394Z,14.93
2017-10-26T06:36:24.803Z,13.90
2017-10-26T06:38:52.219Z,12.10
2017-10-26T06:41:19.684Z,12.93
2017-10-26T06:43:47.094Z,11.17
2017-10-26T06:46:14.539Z,10.70
2017-10-26T06:48:41.973Z,9.10
2017-10-26T06:51:09.372Z,7.60
2017-10-26T06:53:36.799Z,7.23
2017-10-26T06:56:04.244Z,7.37
2017-10-26T06:58:31.663Z,6.93
2017-10-26T07:00:59.090Z,6.17
2017-10-26T07:03:27.432Z,6.47
2017-10-26T07:05:54.875Z,5.70
2017-10-26T07:08:23.278Z,5.40
2017-10-26T07:10:50.692Z,6.30
2017-10-26T07:13:18.144Z,6.13
2017-10-26T07:15:45.556Z,6.90
2017-10-26T07:18:12.965Z,7.37
2017-10-26T07:20:40.925Z,8.30
2017-10-26T07:23:08.352Z,7.80
2017-10-26T07:25:36.590Z,8.40
2017-10-26T07:28:03.995Z,9.43
2017-10-26T07:30:31.437Z,8.53
2017-10-26T07:32:58.873Z,8.67
2017-10-26T07:35:27.214Z,9.07
2017-10-26T07:37:55.404Z,8.90
2017-10-26T07:40:22.888Z,8.70
2017-10-26T07:42:50.596Z,8.73
2017-10-26T07:45:18.039Z,8.30
2017-10-26T07:47:45.455Z,9.43
2017-10-26T07:50:12.924Z,10.70
2017-10-26T07:52:40.336Z,13.77
2017-10-26T07:55:07.780Z,11.63
2017-10-26T07:57:35.212Z,12.40
2017-10-26T08:00:02.655Z,13.10
2017-10-26T08:02:30.126Z,12.73
2017-10-26T08:04:58.185Z,13.50
2017-10-26T08:07:25.938Z,13.20
2017-10-26T08:09:53.370Z,14.13
2017-10-26T08:12:21.522Z,15.83
2017-10-26T08:14:50.265Z,16.20
2017-10-26T08:17:18.721Z,15.53
2017-10-26T08:19:46.204Z,15.83
2017-10-26T08:22:13.648Z,17.30
2017-10-26T08:24:41.979Z,18.80
2017-10-26T08:27:10.902Z,17.20
2017-10-26T08:29:38.301Z,18.13
2017-10-26T08:32:05.827Z,16.57
2017-10-26T08:34:33.261Z,15.30
2017-10-26T08:37:00.717Z,15.70
2017-10-26T08:39:28.171Z,16.20
2017-10-26T08:41:55.618Z,16.83
2017-10-26T08:44:23.021Z,16.93
2017-10-26T08:46:50.460Z,17.43
2017-10-26T08:49:17.916Z,14.73
2017-10-26T08:51:45.308Z,13.63
2017-10-26T08:54:12.812Z,13.73
2017-10-26T08:56:40.237Z,13.80
2017-10-26T08:59:07.709Z,13.40
2017-10-26T09:01:35.108Z,12.97
2017-10-26T09:04:02.551Z,13.17
2017-10-26T09:06:29.986Z,22.10
2017-10-26T09:08:57.417Z,13.80
2017-10-26T09:11:24.819Z,11.87
2017-10-26T09:13:52.289Z,11.53
2017-10-26T09:16:19.730Z,11.67
2017-10-26T09:18:47.225Z,10.67
2017-10-26T09:21:14.692Z,11.07
2017-10-26T09:23:42.964Z,10.80
2017-10-26T09:26:10.440Z,10.23
2017-10-26T09:28:37.876Z,9.57
2017-10-26T09:31:05.384Z,9.60
2017-10-26T09:33:38.704Z,9.40
2017-10-26T09:36:06.151Z,9.17
2017-10-26T09:38:33.564Z,9.73
2017-10-26T09:41:01.201Z,11.03
2017-10-26T09:43:28.662Z,11.40
2017-10-26T09:45:56.089Z,10.83
2017-10-26T09:48:23.524Z,12.53
2017-10-26T09:50:50.943Z,12.50
2017-10-26T09:53:18.402Z,12.70
2017-10-26T09:55:45.808Z,11.20
2017-10-26T09:58:13.199Z,12.53
2017-10-26T10:00:40.639Z,8.60
2017-10-26T10:03:08.037Z,7.37
2017-10-26T10:05:35.464Z,7.80
2017-10-26T10:08:02.867Z,7.33
2017-10-26T10:10:30.297Z,7.60
2017-10-26T10:12:57.707Z,7.00
2017-10-26T10:15:25.155Z,7.10
2017-10-26T10:17:52.587Z,7.43
2017-10-26T10:20:20.137Z,6.70
2017-10-26T10:22:47.545Z,7.40
2017-10-26T10:25:14.960Z,7.73
2017-10-26T10:27:42.365Z,7.53
2017-10-26T10:30:09.815Z,7.73
2017-10-26T10:32:37.215Z,7.50
2017-10-26T10:35:05.510Z,8.40
2017-10-26T10:37:34.293Z,8.50
2017-10-26T10:40:01.684Z,8.30
2017-10-26T10:42:30.025Z,8.17
2017-10-26T10:44:57.438Z,8.00
2017-10-26T10:47:24.861Z,8.63
2017-10-26T10:49:52.295Z,8.40
2017-10-26T10:52:19.743Z,8.67
2017-10-26T10:54:47.177Z,9.40
2017-10-26T10:57:14.588Z,8.63
2017-10-26T10:59:47.611Z,10.90
2017-10-26T11:02:15.860Z,8.23
2017-10-26T11:04:44.016Z,8.17
2017-10-26T11:07:11.452Z,8.90
2017-10-26T11:09:38.904Z,9.37
2017-10-26T11:12:06.308Z,9.10
2017-10-26T11:14:33.740Z,9.27
2017-10-26T11:17:01.207Z,9.40
2017-10-26T11:19:28.627Z,10.00
2017-10-26T11:21:56.456Z,9.77
2017-10-26T11:24:23.876Z,9.33
2017-10-26T11:26:51.335Z,10.90
2017-10-26T11:29:18.757Z,9.40
2017-10-26T11:31:46.403Z,16.20
2017-10-26T11:34:13.851Z,12.53
2017-10-26T11:36:41.284Z,11.70
2017-10-26T11:39:08.714Z,11.60
2017-10-26T11:41:36.151Z,9.67
2017-10-26T11:44:03.572Z,10.40
2017-10-26T11:46:31.074Z,11.37
2017-10-26T11:48:58.548Z,11.27
2017-10-26T11:51:26.053Z,11.40
2017-10-26T11:53:53.534Z,10.97
2017-10-26T11:56:21.840Z,11.60
2017-10-26T11:58:49.279Z,11.07
2017-10-26T12:01:16.887Z,12.10
2017-10-26T12:03:44.410Z,10.93
2017-10-26T12:06:11.802Z,12.40
2017-10-26T12:08:39.226Z,11.43
2017-10-26T12:11:06.732Z,9.90
2017-10-26T12:13:34.205Z,9.27
2017-10-26T12:16:01.670Z,10.40
2017-10-26T12:18:29.071Z,10.70
2017-10-26T12:20:56.492Z,13.63
2017-10-26T12:23:23.943Z,11.00
2017-10-26T12:25:52.384Z,9.90
2017-10-26T12:28:19.804Z,9.80
2017-10-26T12:30:47.236Z,9.07
2017-10-26T12:33:14.768Z,8.70
2017-10-26T12:35:42.230Z,9.83
2017-10-26T12:38:09.656Z,8.90
2017-10-26T12:40:37.110Z,9.10
2017-10-26T12:43:04.552Z,11.40
2017-10-26T12:45:32.000Z,9.77
2017-10-26T12:47:59.424Z,9.60
2017-10-26T12:50:26.898Z,10.30
2017-10-26T12:52:54.306Z,10.10
2017-10-26T12:55:21.746Z,10.63
2017-10-26T12:57:49.184Z,9.83
2017-10-26T13:00:16.597Z,9.87
2017-10-26T13:02:44.531Z,10.37
2017-10-26T13:05:11.965Z,12.70
2017-10-26T13:07:39.419Z,10.77
2017-10-26T13:10:08.415Z,10.60
2017-10-26T13:12:36.028Z,11.03
2017-10-26T13:15:03.466Z,10.93
2017-10-26T13:17:30.887Z,11.87
2017-10-26T13:19:58.343Z,12.07
2017-10-26T13:22:25.773Z,12.80
2017-10-26T13:24:53.233Z,13.23
2017-10-26T13:27:21.485Z,11.00
2017-10-26T13:29:48.900Z,12.00
2017-10-26T13:32:16.349Z,11.83
2017-10-26T13:34:44.029Z,11.57
2017-10-26T13:37:11.502Z,11.77
2017-10-26T13:39:39.068Z,11.93
2017-10-26T13:42:06.482Z,18.07
2017-10-26T13:44:34.834Z,10.33
2017-10-26T13:47:02.238Z,11.30
2017-10-26T13:49:29.676Z,10.70
2017-10-26T13:51:57.098Z,10.00
2017-10-26T13:54:24.589Z,8.80
2017-10-26T13:56:51.984Z,9.93
2017-10-26T13:59:19.400Z,9.97
2017-10-26T14:01:46.819Z,9.20
2017-10-26T14:04:14.276Z,9.80
2017-10-26T14:06:41.750Z,9.20
2017-10-26T14:09:09.780Z,9.80
2017-10-26T14:11:37.239Z,8.80
2017-10-26T14:14:04.647Z,10.03
2017-10-26T14:16:32.218Z,9.30
2017-10-26T14:18:59.670Z,8.90
2017-10-26T14:21:27.089Z,10.20
2017-10-26T14:23:54.534Z,10.30
2017-10-26T14:26:21.950Z,12.30
2017-10-26T14:28:49.424Z,9.50
2017-10-26T14:31:16.859Z,9.10
2017-10-26T14:33:44.311Z,9.53
2017-10-26T14:36:11.723Z,9.10
2017-10-26T14:38:39.161Z,9.73
2017-10-26T14:41:06.623Z,9.93
2017-10-26T14:43:34.131Z,10.60
2017-10-26T14:46:01.537Z,10.50
2017-10-26T14:48:28.987Z,10.60
2017-10-26T14:50:56.431Z,10.57
2017-10-26T14:53:23.888Z,11.13
2017-10-26T14:55:51.304Z,10.80
2017-10-26T14:58:18.776Z,10.60
2017-10-26T15:00:46.250Z,11.10
2017-10-26T15:03:13.685Z,11.20
2017-10-26T15:05:41.120Z,13.67
2017-10-26T15:08:08.572Z,11.30
2017-10-26T15:10:36.040Z,10.93
2017-10-26T15:13:03.467Z,12.43
2017-10-26T15:15:30.897Z,11.90
2017-10-26T15:17:58.319Z,11.20
2017-10-26T15:20:25.803Z,12.07
2017-10-26T15:22:53.281Z,14.23
2017-10-26T15:25:20.716Z,14.47
2017-10-26T15:27:48.182Z,13.70
2017-10-26T15:30:15.605Z,13.70
2017-10-26T15:32:43.029Z,14.23
2017-10-26T15:35:10.516Z,14.33
2017-10-26T15:37:37.942Z,15.70
2017-10-26T15:40:05.458Z,15.50
2017-10-26T15:42:32.997Z,14.70
2017-10-26T15:45:00.449Z,13.47
2017-10-26T15:47:27.920Z,14.20
2017-10-26T15:49:55.340Z,14.20
2017-10-26T15:52:22.820Z,15.67
2017-10-26T15:54:50.286Z,14.90
2017-10-26T15:57:17.696Z,14.67
2017-10-26T15:59:45.141Z,15.13
2017-10-26T16:02:12.580Z,15.60
2017-10-26T16:04:40.100Z,14.30
2017-10-26T16:07:07.552Z,14.40
2017-10-26T16:09:35.019Z,14.10
2017-10-26T16:12:02.507Z,15.57
2017-10-26T16:14:29.964Z,14.90
2017-10-26T16:16:57.419Z,15.17
2017-10-26T16:19:24.974Z,15.17
2017-10-26T16:21:52.506Z,15.33
2017-10-26T16:24:19.928Z,17.17
2017-10-26T16:26:47.382Z,15.10
2017-10-26T16:29:14.819Z,16.07
2017-10-26T16:31:42.233Z,13.50
2017-10-26T16:34:09.695Z,14.90
2017-10-26T16:36:37.137Z,16.40
2017-10-26T16:39:04.569Z,14.87
2017-10-26T16:41:32.041Z,15.50
2017-10-26T16:43:59.480Z,16.17
2017-10-26T16:46:26.943Z,16.07
2017-10-26T16:48:54.362Z,16.43
2017-10-26T16:51:21.860Z,15.30
2017-10-26T16:53:49.303Z,15.43
2017-10-26T16:56:16.765Z,17.70
2017-10-26T16:58:44.209Z,16.80
2017-10-26T17:01:11.633Z,17.30
2017-10-26T17:03:39.085Z,17.20
2017-10-26T17:06:06.503Z,15.47
2017-10-26T17:08:33.938Z,16.47
2017-10-26T17:11:01.373Z,17.50
2017-10-26T17:13:28.800Z,16.97
2017-10-26T17:15:56.228Z,16.70
2017-10-26T17:18:23.686Z,17.00
2017-10-26T17:20:51.097Z,17.47
2017-10-26T17:23:18.547Z,18.60
2017-10-26T17:25:45.980Z,18.00
2017-10-26T17:28:13.430Z,18.23
2017-10-26T17:30:40.889Z,18.90
2017-10-26T17:33:08.300Z,17.90
2017-10-26T17:35:35.755Z,18.33
2017-10-26T17:38:03.157Z,19.30
2017-10-26T17:40:30.627Z,18.30
2017-10-26T17:42:58.093Z,18.80
2017-10-26T17:45:25.510Z,20.43
2017-10-26T17:47:52.977Z,20.07
2017-10-26T17:50:20.363Z,21.83
2017-10-26T17:52:47.796Z,20.30
2017-10-26T17:55:15.230Z,20.20
2017-10-26T17:57:42.674Z,19.03
2017-10-26T18:00:10.080Z,20.83
2017-10-26T18:02:37.534Z,21.20
2017-10-26T18:05:04.944Z,21.97
2017-10-26T18:07:32.415Z,21.17
2017-10-26T18:09:59.838Z,22.80
2017-10-26T18:12:27.258Z,21.50
2017-10-26T18:14:54.681Z,21.07
2017-10-26T18:17:22.169Z,22.93
2017-10-26T18:19:49.616Z,21.33
2017-10-26T18:22:17.006Z,21.63
2017-10-26T18:24:44.440Z,21.20
2017-10-26T18:27:11.875Z,22.13
2017-10-26T18:29:39.370Z,24.47
2017-10-26T18:32:06.808Z,24.07
2017-10-26T18:34:34.229Z,23.07
2017-10-26T18:37:01.704Z,21.90
2017-10-26T18:39:29.135Z,21.03
2017-10-26T18:41:56.571Z,21.80
2017-10-26T18:44:23.988Z,19.93
2017-10-26T18:46:51.439Z,21.63
2017-10-26T18:49:18.861Z,21.07
2017-10-26T18:51:46.304Z,22.30
2017-10-26T18:54:13.707Z,22.17
2017-10-26T18:56:41.163Z,20.97
2017-10-26T18:59:08.633Z,22.00
2017-10-26T19:01:36.087Z,20.17
2017-10-26T19:04:03.532Z,21.20
2017-10-26T19:06:30.934Z,21.60
2017-10-26T19:08:58.376Z,22.50
2017-10-26T19:11:25.815Z,23.17
2017-10-26T19:13:53.270Z,22.73
2017-10-26T19:16:20.688Z,22.80
2017-10-26T19:18:48.159Z,22.70
2017-10-26T19:21:15.593Z,23.67
2017-10-26T19:23:43.019Z,22.20
2017-10-26T19:26:10.468Z,24.07
2017-10-26T19:28:37.889Z,24.23
2017-10-26T19:31:05.329Z,24.33
2017-10-26T19:33:32.750Z,23.23
2017-10-26T19:36:00.170Z,22.67
2017-10-26T19:38:27.607Z,24.23
2017-10-26T19:40:55.039Z,25.53
2017-10-26T19:43:22.545Z,24.20
2017-10-26T19:45:49.969Z,24.37
2017-10-26T19:48:17.412Z,24.40
2017-10-26T19:50:44.829Z,24.83
2017-10-26T19:53:12.295Z,23.80
2017-10-26T19:55:39.726Z,24.13
2017-10-26T19:58:07.190Z,25.53
2017-10-26T20:00:34.647Z,24.10
2017-10-26T20:03:02.052Z,25.80
2017-10-26T20:05:29.487Z,26.17
2017-10-26T20:07:56.896Z,23.40
2017-10-26T20:10:24.347Z,24.10
2017-10-26T20:12:51.756Z,25.00
2017-10-26T20:15:19.210Z,24.70
2017-10-26T20:17:46.620Z,28.30
2017-10-26T20:20:14.077Z,27.80
2017-10-26T20:22:41.497Z,26.63
2017-10-26T20:25:08.912Z,25.10
2017-10-26T20:27:36.971Z,26.67
2017-10-26T20:30:04.419Z,24.10
2017-10-26T20:32:31.845Z,23.53
2017-10-26T20:34:59.643Z,21.93
2017-10-26T20:37:27.116Z,21.53
2017-10-26T20:39:54.551Z,21.10
2017-10-26T20:42:22.021Z,21.97
2017-10-26T20:44:49.435Z,22.70
2017-10-26T20:47:16.842Z,23.10
2017-10-26T20:49:49.845Z,22.07
2017-10-26T20:52:22.963Z,21.13
2017-10-26T20:54:55.907Z,20.30
2017-10-26T20:57:28.955Z,19.53
2017-10-26T21:00:01.870Z,20.60
2017-10-26T21:02:34.956Z,20.77
2017-10-26T21:05:07.865Z,21.00
2017-10-26T21:07:40.779Z,19.47
2017-10-26T21:10:13.706Z,18.40
2017-10-26T21:12:47.160Z,18.67
2017-10-26T21:15:14.696Z,20.10
2017-10-26T21:17:42.109Z,20.60
2017-10-26T21:20:09.533Z,20.87
2017-10-26T21:22:36.964Z,19.70
2017-10-26T21:25:04.495Z,19.87
2017-10-26T21:27:31.977Z,19.00
2017-10-26T21:29:59.402Z,18.43
2017-10-26T21:32:26.827Z,18.90
2017-10-26T21:34:54.242Z,21.77
2017-10-26T21:37:21.700Z,20.50
2017-10-26T21:39:49.281Z,23.10
2017-10-26T23:23:10.756Z,20.30
2017-10-26T23:25:38.223Z,18.80
2017-10-26T23:28:05.618Z,18.20
2017-10-26T23:30:33.075Z,21.60
2017-10-26T23:33:00.501Z,19.90
2017-10-26T23:35:27.957Z,21.80
2017-10-26T23:37:55.373Z,20.60
2017-10-26T23:40:22.854Z,18.80
2017-10-26T23:42:50.292Z,20.27
2017-10-26T23:45:17.720Z,19.67
2017-10-26T23:47:45.155Z,22.80
2017-10-26T23:50:12.560Z,23.87
2017-10-26T23:52:40.034Z,23.07
2017-10-26T23:55:07.461Z,19.77
2017-10-26T23:57:34.895Z,19.57
